createdAt,value
2023-04-08T00:00:32.441Z,95.80
2023-04-08T00:02:59.774Z,95.90
2023-04-08T00:05:26.832Z,95.80
2023-04-08T00:07:53.680Z,95.70
2023-04-08T00:10:20.989Z,95.60
2023-04-08T00:12:48.786Z,95.60
2023-04-08T00:15:15.703Z,95.50
2023-04-08T00:17:42.661Z,95.30
2023-04-08T00:20:10.018Z,95.20
2023-04-08T00:22:36.911Z,95.10
2023-04-08T00:25:06.780Z,95.00
2023-04-08T00:27:34.060Z,95.10
2023-04-08T00:30:01.929Z,95.10
2023-04-08T00:32:29.500Z,95.00
2023-04-08T00:34:56.657Z,94.80
2023-04-08T00:37:25.053Z,94.70
2023-04-08T00:39:54.368Z,94.70
2023-04-08T00:42:22.277Z,94.60
2023-04-08T00:44:49.334Z,94.70
2023-04-08T00:47:16.723Z,94.70
2023-04-08T00:49:44.186Z,94.80
2023-04-08T00:52:11.175Z,94.80
2023-04-08T00:54:38.670Z,94.90
2023-04-08T00:57:06.703Z,94.90
2023-04-08T00:59:36.077Z,94.80
2023-04-08T01:02:15.121Z,94.90
2023-04-08T01:05:00.366Z,94.90
2023-04-08T01:07:44.870Z,94.90
2023-04-08T01:10:26.080Z,95.00
2023-04-08T01:12:58.520Z,94.90
2023-04-08T01:15:29.026Z,95.00
2023-04-08T01:17:58.811Z,94.90
2023-04-08T01:20:27.499Z,94.90
2023-04-08T01:23:13.518Z,95.00
2023-04-08T01:25:45.482Z,95.00
2023-04-08T01:28:16.528Z,95.00
2023-04-08T01:30:45.108Z,95.10
2023-04-08T01:33:15.026Z,95.20
2023-04-08T01:35:42.357Z,95.30
2023-04-08T01:38:14.074Z,95.50
2023-04-08T01:40:42.280Z,95.40
2023-04-08T01:43:11.431Z,95.30
2023-04-08T01:45:39.157Z,95.20
2023-04-08T01:48:07.146Z,95.10
2023-04-08T01:50:34.802Z,95.10
2023-04-08T01:53:04.763Z,95.10
2023-04-08T01:55:33.746Z,95.10
2023-04-08T01:58:01.374Z,95.00
2023-04-08T02:00:31.015Z,94.90
2023-04-08T02:02:59.683Z,94.90
2023-04-08T02:05:26.763Z,94.90
2023-04-08T02:07:53.608Z,94.90
2023-04-08T02:10:21.305Z,94.80
2023-04-08T02:12:49.513Z,94.80
2023-04-08T02:15:17.234Z,94.80
2023-04-08T02:17:56.329Z,94.80
2023-04-08T02:20:32.813Z,94.70
2023-04-08T02:23:09.410Z,94.70
2023-04-08T02:25:40.029Z,94.60
2023-04-08T02:28:11.294Z,94.50
2023-04-08T02:30:48.146Z,94.40
2023-04-08T02:33:17.955Z,94.40
2023-04-08T02:35:45.973Z,94.40
2023-04-08T02:38:12.864Z,94.40
2023-04-08T02:40:39.730Z,94.40
2023-04-08T02:43:07.284Z,94.40
2023-04-08T02:45:43.878Z,94.40
2023-04-08T02:48:11.096Z,94.40
2023-04-08T02:50:38.337Z,94.40
2023-04-08T02:53:05.496Z,94.40
2023-04-08T02:55:33.774Z,94.30
2023-04-08T02:58:00.926Z,94.40
2023-04-08T03:00:27.848Z,94.40
2023-04-08T03:02:55.472Z,94.40
2023-04-08T03:05:22.446Z,94.50
2023-04-08T03:07:49.280Z,94.30
2023-04-08T03:10:16.166Z,94.40
2023-04-08T03:12:43.093Z,94.30
2023-04-08T03:15:10.652Z,94.30
2023-04-08T03:17:37.715Z,94.20
2023-04-08T03:20:05.244Z,94.10
2023-04-08T03:22:33.040Z,94.10
2023-04-08T03:25:00.158Z,94.20
2023-04-08T03:27:27.033Z,94.30
2023-04-08T03:29:54.017Z,94.10
2023-04-08T03:32:21.189Z,94.10
2023-04-08T03:34:51.167Z,94.10
2023-04-08T03:37:18.824Z,94.10
2023-04-08T03:39:46.482Z,94.10
2023-04-08T03:42:13.694Z,94.20
2023-04-08T03:44:40.644Z,94.20
2023-04-08T03:47:07.519Z,94.30
2023-04-08T03:49:34.293Z,94.40
2023-04-08T03:52:01.109Z,94.50
2023-04-08T03:54:28.092Z,94.40
2023-04-08T03:56:55.030Z,94.30
2023-04-08T03:59:21.929Z,94.50
2023-04-08T04:01:48.974Z,94.30
2023-04-08T04:04:16.474Z,94.10
2023-04-08T04:06:43.578Z,94.00
2023-04-08T04:09:11.228Z,94.00
2023-04-08T04:11:38.072Z,94.00
2023-04-08T04:14:04.918Z,93.90
2023-04-08T04:16:32.950Z,93.80
2023-04-08T04:19:00.395Z,93.50
2023-04-08T04:21:27.584Z,93.40
2023-04-08T04:23:54.529Z,93.40
2023-04-08T04:26:21.629Z,93.20
2023-04-08T04:28:49.035Z,93.20
2023-04-08T04:31:21.971Z,93.20
2023-04-08T04:33:49.552Z,93.20
2023-04-08T04:36:16.473Z,93.30
2023-04-08T04:38:43.684Z,93.30
2023-04-08T04:41:11.065Z,93.30
2023-04-08T04:43:38.109Z,93.40
2023-04-08T04:46:07.242Z,93.40
2023-04-08T04:48:34.892Z,93.60
2023-04-08T04:51:05.082Z,93.40
2023-04-08T04:53:32.026Z,93.40
2023-04-08T04:56:01.271Z,93.30
2023-04-08T04:58:28.670Z,93.20
2023-04-08T05:00:56.115Z,93.10
2023-04-08T05:03:23.326Z,93.00
2023-04-08T05:05:54.291Z,93.00
2023-04-08T05:08:21.909Z,92.90
2023-04-08T05:10:50.943Z,92.90
2023-04-08T05:13:18.963Z,92.80
2023-04-08T05:15:46.306Z,92.70
2023-04-08T05:18:13.600Z,92.80
2023-04-08T05:20:40.563Z,92.80
2023-04-08T05:23:07.868Z,92.70
2023-04-08T05:25:34.938Z,92.20
2023-04-08T05:28:01.951Z,91.70
2023-04-08T05:30:28.974Z,91.40
2023-04-08T05:32:59.387Z,90.80
2023-04-08T05:35:27.503Z,90.50
2023-04-08T05:37:54.418Z,90.20
2023-04-08T05:40:21.294Z,89.30
2023-04-08T05:42:48.127Z,87.80
2023-04-08T05:45:15.205Z,86.60
2023-04-08T05:47:42.129Z,86.00
2023-04-08T05:50:09.480Z,85.40
2023-04-08T05:52:36.434Z,84.50
2023-04-08T05:55:03.777Z,84.20
2023-04-08T05:57:30.709Z,83.50
2023-04-08T05:59:57.507Z,82.90
2023-04-08T06:02:24.537Z,82.50
2023-04-08T06:04:51.654Z,81.80
2023-04-08T06:07:18.776Z,80.70
2023-04-08T06:09:45.722Z,79.40
2023-04-08T06:12:13.049Z,78.80
2023-04-08T06:14:39.910Z,78.50
2023-04-08T06:17:06.807Z,77.80
2023-04-08T06:19:33.613Z,77.70
2023-04-08T06:22:00.574Z,75.70
2023-04-08T06:24:27.835Z,75.00
2023-04-08T06:26:54.987Z,74.00
2023-04-08T06:29:23.058Z,73.00
2023-04-08T06:31:51.332Z,73.00
2023-04-08T06:34:18.274Z,71.40
2023-04-08T06:36:45.167Z,71.00
2023-04-08T06:39:12.103Z,70.50
2023-04-08T06:41:38.927Z,70.20
2023-04-08T06:44:19.735Z,69.50
2023-04-08T06:46:46.830Z,69.50
2023-04-08T06:49:13.660Z,68.70
2023-04-08T06:51:40.519Z,68.10
2023-04-08T06:54:07.573Z,67.60
2023-04-08T06:56:34.552Z,67.40
2023-04-08T06:59:01.497Z,66.90
2023-04-08T07:01:28.417Z,65.60
2023-04-08T07:03:57.685Z,63.20
2023-04-08T07:06:24.754Z,63.40
2023-04-08T07:08:51.778Z,63.30
2023-04-08T07:11:18.890Z,62.60
2023-04-08T07:13:45.769Z,62.10
2023-04-08T07:16:12.662Z,62.60
2023-04-08T07:18:41.681Z,62.50
2023-04-08T07:21:08.546Z,62.80
2023-04-08T07:23:35.424Z,63.50
2023-04-08T07:26:06.258Z,64.50
2023-04-08T07:28:33.277Z,63.90
2023-04-08T07:31:16.038Z,64.30
2023-04-08T07:33:43.702Z,63.50
2023-04-08T07:36:12.150Z,63.90
2023-04-08T07:38:39.453Z,63.00
2023-04-08T07:41:06.354Z,62.50
2023-04-08T07:43:40.072Z,61.90
2023-04-08T07:46:07.579Z,61.80
2023-04-08T07:48:35.311Z,61.90
2023-04-08T07:51:11.321Z,61.30
2023-04-08T07:53:40.381Z,61.20
2023-04-08T07:56:14.670Z,60.00
2023-04-08T07:58:42.426Z,60.80
2023-04-08T08:01:21.920Z,60.10
2023-04-08T08:03:51.466Z,60.00
2023-04-08T08:06:18.935Z,59.80
2023-04-08T08:08:45.968Z,59.80
2023-04-08T08:11:13.258Z,59.90
2023-04-08T08:13:40.356Z,60.00
2023-04-08T08:16:09.391Z,59.20
2023-04-08T08:18:37.024Z,59.10
2023-04-08T08:21:04.138Z,58.50
2023-04-08T08:23:31.485Z,58.50
2023-04-08T08:26:16.813Z,58.50
2023-04-08T08:28:43.742Z,58.70
2023-04-08T08:31:10.701Z,57.90
2023-04-08T08:33:37.527Z,57.30
2023-04-08T08:36:05.991Z,57.20
2023-04-08T08:38:33.413Z,56.50
2023-04-08T08:41:01.839Z,56.70
2023-04-08T08:43:29.854Z,56.60
2023-04-08T08:45:56.694Z,55.30
2023-04-08T08:48:23.789Z,55.30
2023-04-08T08:50:50.902Z,55.60
2023-04-08T08:53:19.684Z,55.20
2023-04-08T08:56:13.738Z,55.30
2023-04-08T08:58:33.515Z,55.00
2023-04-08T09:01:00.445Z,54.90
2023-04-08T09:03:28.846Z,54.60
2023-04-08T09:06:01.731Z,54.60
2023-04-08T09:08:31.510Z,54.00
2023-04-08T09:11:16.469Z,54.60
2023-04-08T09:13:45.340Z,54.30
2023-04-08T09:16:18.289Z,53.80
2023-04-08T09:18:47.503Z,53.60
2023-04-08T09:21:19.167Z,53.70
2023-04-08T09:23:50.949Z,53.10
2023-04-08T09:26:20.285Z,52.90
2023-04-08T09:29:18.251Z,53.80
2023-04-08T09:31:47.296Z,53.20
2023-04-08T09:34:17.116Z,52.50
2023-04-08T09:36:44.713Z,52.50
2023-04-08T09:39:12.109Z,51.90
2023-04-08T09:41:39.679Z,51.90
2023-04-08T09:44:09.676Z,51.50
2023-04-08T09:46:46.048Z,51.20
2023-04-08T09:49:18.468Z,50.90
2023-04-08T09:52:07.449Z,51.70
2023-04-08T09:54:59.156Z,51.60
2023-04-08T09:57:36.661Z,51.60
2023-04-08T10:00:17.740Z,51.80
2023-04-08T10:03:03.335Z,51.40
2023-04-08T10:05:31.281Z,51.90
2023-04-08T10:07:58.435Z,50.30
2023-04-08T10:10:26.751Z,51.20
2023-04-08T10:12:54.161Z,52.00
2023-04-08T10:15:32.453Z,48.40
2023-04-08T10:18:05.800Z,47.90
2023-04-08T10:20:38.699Z,48.90
2023-04-08T10:23:09.564Z,47.30
2023-04-08T10:25:48.025Z,47.70
2023-04-08T10:28:15.507Z,49.30
2023-04-08T10:30:44.193Z,48.90
2023-04-08T10:33:25.529Z,48.90
2023-04-08T10:36:12.260Z,47.40
2023-04-08T10:38:39.869Z,46.10
2023-04-08T10:41:06.710Z,45.80
2023-04-08T10:43:34.957Z,48.40
2023-04-08T10:46:02.508Z,44.70
2023-04-08T10:48:29.655Z,44.10
2023-04-08T10:50:57.174Z,46.20
2023-04-08T10:53:30.999Z,47.00
2023-04-08T10:56:25.507Z,44.80
2023-04-08T10:58:57.579Z,45.30
2023-04-08T11:01:24.711Z,47.50
2023-04-08T11:03:52.205Z,46.20
2023-04-08T11:06:19.782Z,43.30
2023-04-08T11:08:47.326Z,44.70
2023-04-08T11:11:15.477Z,44.00
2023-04-08T11:13:51.994Z,42.90
2023-04-08T11:16:21.637Z,45.30
2023-04-08T11:18:49.621Z,49.50
2023-04-08T11:21:17.417Z,47.20
2023-04-08T11:23:44.739Z,44.60
2023-04-08T11:26:12.100Z,47.90
2023-04-08T11:28:39.168Z,45.30
2023-04-08T11:31:08.889Z,45.60
2023-04-08T11:33:36.447Z,42.40
2023-04-08T11:36:06.296Z,43.70
2023-04-08T11:38:33.202Z,41.80
2023-04-08T11:41:00.620Z,42.30
2023-04-08T11:43:28.856Z,42.30
2023-04-08T11:45:55.746Z,42.90
2023-04-08T11:48:24.206Z,43.00
2023-04-08T11:51:04.065Z,42.80
2023-04-08T11:53:31.012Z,43.10
2023-04-08T11:55:58.070Z,43.00
2023-04-08T11:58:25.009Z,43.40
2023-04-08T12:00:51.847Z,42.80
2023-04-08T12:03:18.980Z,43.00
2023-04-08T12:05:46.569Z,42.80
2023-04-08T12:08:14.645Z,42.80
2023-04-08T12:10:41.755Z,44.80
2023-04-08T12:13:08.667Z,43.00
2023-04-08T12:15:35.546Z,42.50
2023-04-08T12:18:02.510Z,42.60
2023-04-08T12:20:29.402Z,43.80
2023-04-08T12:22:56.291Z,42.90
2023-04-08T12:25:23.391Z,42.40
2023-04-08T12:27:50.332Z,44.30
2023-04-08T12:30:17.274Z,42.30
2023-04-08T12:32:46.068Z,43.40
2023-04-08T12:35:13.371Z,42.00
2023-04-08T12:37:40.692Z,41.90
2023-04-08T12:40:08.290Z,41.40
2023-04-08T12:42:35.780Z,41.70
2023-04-08T12:45:02.664Z,42.90
2023-04-08T12:47:30.318Z,41.10
2023-04-08T12:49:57.715Z,43.50
2023-04-08T12:52:24.829Z,45.30
2023-04-08T12:54:51.890Z,44.50
2023-04-08T12:57:18.812Z,40.90
2023-04-08T12:59:45.675Z,40.50
2023-04-08T13:02:12.765Z,39.70
2023-04-08T13:04:39.821Z,39.60
2023-04-08T13:07:07.672Z,40.40
2023-04-08T13:09:35.073Z,40.60
2023-04-08T13:12:02.128Z,41.90
2023-04-08T13:14:29.073Z,40.70
2023-04-08T13:16:57.074Z,39.80
2023-04-08T13:19:23.861Z,40.30
2023-04-08T13:21:50.816Z,40.80
2023-04-08T13:24:18.761Z,40.70
2023-04-08T13:26:45.951Z,40.60
2023-04-08T13:29:14.447Z,43.40
2023-04-08T13:31:41.485Z,44.40
2023-04-08T13:34:08.412Z,43.00
2023-04-08T13:36:35.445Z,40.10
2023-04-08T13:39:02.355Z,39.40
2023-04-08T13:41:30.094Z,40.10
2023-04-08T13:43:57.022Z,39.60
2023-04-08T13:46:24.192Z,40.10
2023-04-08T13:48:54.018Z,41.10
2023-04-08T13:51:21.129Z,41.60
2023-04-08T13:53:48.164Z,40.20
2023-04-08T13:56:15.357Z,41.10
2023-04-08T13:58:42.911Z,41.60
2023-04-08T14:01:10.662Z,41.90
2023-04-08T14:03:37.756Z,40.90
2023-04-08T14:06:04.691Z,41.40
2023-04-08T14:08:31.642Z,41.10
2023-04-08T14:10:59.190Z,39.80
2023-04-08T14:13:26.007Z,40.60
2023-04-08T14:15:54.996Z,41.40
2023-04-08T14:18:22.346Z,45.00
2023-04-08T14:20:49.298Z,43.20
2023-04-08T14:23:17.164Z,39.80
2023-04-08T14:25:44.066Z,40.30
2023-04-08T14:28:11.529Z,40.00
2023-04-08T14:30:38.862Z,41.90
2023-04-08T14:33:06.175Z,40.20
2023-04-08T14:35:33.171Z,40.70
2023-04-08T14:38:00.717Z,40.40
2023-04-08T14:40:27.639Z,42.20
2023-04-08T14:42:54.592Z,41.10
2023-04-08T14:45:21.998Z,39.90
2023-04-08T14:47:48.957Z,40.00
2023-04-08T14:50:16.823Z,41.10
2023-04-08T14:52:45.324Z,43.90
2023-04-08T14:55:12.647Z,40.90
2023-04-08T14:57:39.587Z,42.00
2023-04-08T15:00:07.713Z,43.20
2023-04-08T15:02:34.718Z,40.80
2023-04-08T15:05:01.950Z,43.90
2023-04-08T15:07:28.941Z,44.20
2023-04-08T15:09:57.088Z,45.10
2023-04-08T15:12:24.706Z,45.60
2023-04-08T15:14:51.717Z,43.70
2023-04-08T15:17:18.823Z,42.40
2023-04-08T15:19:46.426Z,40.20
2023-04-08T15:22:13.478Z,40.70
2023-04-08T15:24:40.486Z,40.90
2023-04-08T15:27:07.542Z,43.80
2023-04-08T15:29:34.658Z,43.80
2023-04-08T15:32:01.632Z,42.30
2023-04-08T15:34:28.588Z,41.40
2023-04-08T15:36:58.588Z,38.90
2023-04-08T15:39:25.959Z,38.60
2023-04-08T15:41:53.241Z,39.20
2023-04-08T15:44:20.083Z,40.00
2023-04-08T15:46:47.023Z,40.00
2023-04-08T15:49:14.606Z,39.50
2023-04-08T15:51:44.534Z,39.90
2023-04-08T15:54:11.973Z,39.80
2023-04-08T15:56:38.948Z,40.60
2023-04-08T15:59:05.846Z,41.30
2023-04-08T16:01:33.428Z,41.10
2023-04-08T16:04:01.053Z,40.50
2023-04-08T16:06:28.261Z,40.00
2023-04-08T16:08:56.721Z,40.10
2023-04-08T16:11:25.284Z,40.00
2023-04-08T16:13:52.437Z,40.80
2023-04-08T16:16:19.892Z,41.90
2023-04-08T16:18:47.689Z,43.20
2023-04-08T16:21:14.781Z,41.10
2023-04-08T16:23:41.685Z,41.00
2023-04-08T16:26:08.709Z,40.90
2023-04-08T16:28:36.991Z,41.40
2023-04-08T16:31:03.964Z,40.50
2023-04-08T16:33:32.070Z,39.90
2023-04-08T16:36:00.248Z,40.30
2023-04-08T16:38:27.369Z,40.70
2023-04-08T16:40:58.517Z,40.40
2023-04-08T16:43:25.934Z,39.60
2023-04-08T16:45:53.359Z,41.00
2023-04-08T16:48:21.067Z,40.40
2023-04-08T16:50:47.936Z,40.40
2023-04-08T16:53:14.802Z,39.70
2023-04-08T16:55:41.820Z,40.30
2023-04-08T16:58:08.625Z,40.10
2023-04-08T17:00:36.369Z,40.00
2023-04-08T17:03:03.513Z,40.20
2023-04-08T17:05:31.010Z,40.70
2023-04-08T17:07:58.258Z,41.30
2023-04-08T17:10:25.394Z,41.10
2023-04-08T17:12:52.776Z,40.90
2023-04-08T17:15:19.826Z,41.60
2023-04-08T17:17:47.913Z,40.80
2023-04-08T17:20:14.825Z,40.90
2023-04-08T17:22:42.301Z,40.50
2023-04-08T17:25:09.647Z,41.10
2023-04-08T17:27:36.625Z,42.70
2023-04-08T17:30:04.105Z,42.60
2023-04-08T17:32:30.963Z,41.20
2023-04-08T17:34:57.982Z,41.60
2023-04-08T17:37:25.027Z,41.40
2023-04-08T17:39:52.082Z,42.30
2023-04-08T17:42:22.456Z,41.70
2023-04-08T17:44:49.517Z,44.50
2023-04-08T17:47:16.466Z,46.70
2023-04-08T17:49:43.458Z,47.30
2023-04-08T17:52:10.338Z,47.70
2023-04-08T17:54:37.359Z,46.60
2023-04-08T17:57:04.561Z,46.30
2023-04-08T17:59:31.505Z,46.50
2023-04-08T18:01:58.403Z,47.30
2023-04-08T18:04:25.572Z,47.30
2023-04-08T18:06:52.548Z,46.90
2023-04-08T18:09:19.510Z,47.10
2023-04-08T18:11:46.527Z,47.90
2023-04-08T18:14:13.490Z,49.50
2023-04-08T18:16:40.710Z,48.70
2023-04-08T18:19:07.827Z,49.10
2023-04-08T18:21:34.671Z,49.10
2023-04-08T18:24:02.199Z,50.10
2023-04-08T18:26:29.211Z,49.70
2023-04-08T18:28:56.151Z,49.50
2023-04-08T18:31:24.480Z,49.10
2023-04-08T18:33:52.025Z,49.30
2023-04-08T18:36:19.283Z,49.70
2023-04-08T18:38:46.227Z,49.80
2023-04-08T18:41:13.435Z,50.20
2023-04-08T18:43:40.707Z,50.30
2023-04-08T18:46:07.757Z,50.70
2023-04-08T18:48:34.642Z,51.30
2023-04-08T18:51:02.066Z,51.00
2023-04-08T18:53:29.185Z,51.20
2023-04-08T18:55:56.323Z,51.30
2023-04-08T18:58:23.249Z,51.90
2023-04-08T19:00:50.101Z,52.40
2023-04-08T19:03:17.129Z,53.30
2023-04-08T19:05:44.250Z,53.30
2023-04-08T19:08:11.257Z,53.50
2023-04-08T19:10:38.120Z,53.50
2023-04-08T19:13:05.322Z,53.80
2023-04-08T19:15:32.174Z,53.90
2023-04-08T19:17:59.403Z,53.90
2023-04-08T19:20:27.395Z,53.50
2023-04-08T19:22:55.704Z,53.40
2023-04-08T19:25:22.859Z,53.80
2023-04-08T19:27:49.869Z,54.60
2023-04-08T19:30:17.031Z,55.00
2023-04-08T19:32:44.094Z,55.50
2023-04-08T19:35:14.299Z,55.80
2023-04-08T19:37:41.593Z,56.10
2023-04-08T19:40:09.162Z,56.40
2023-04-08T19:42:36.544Z,55.50
2023-04-08T19:45:03.928Z,55.50
2023-04-08T19:47:30.875Z,55.60
2023-04-08T19:49:58.462Z,55.90
2023-04-08T19:52:25.905Z,56.00
2023-04-08T19:54:53.212Z,55.90
2023-04-08T19:57:20.681Z,56.00
2023-04-08T19:59:50.505Z,56.10
2023-04-08T20:02:17.631Z,56.40
2023-04-08T20:04:45.716Z,56.70
2023-04-08T20:07:12.934Z,56.60
2023-04-08T20:09:39.979Z,56.40
2023-04-08T20:12:07.628Z,56.60
2023-04-08T20:14:37.970Z,57.00
2023-04-08T20:17:05.029Z,57.10
2023-04-08T20:19:31.876Z,57.40
2023-04-08T20:21:58.856Z,57.30
2023-04-08T20:24:26.326Z,57.60
2023-04-08T20:26:53.549Z,57.60
2023-04-08T20:29:20.748Z,57.70
2023-04-08T20:31:47.850Z,57.20
2023-04-08T20:34:14.782Z,57.60
2023-04-08T20:36:42.377Z,57.10
2023-04-08T20:39:12.657Z,56.90
2023-04-08T20:41:39.513Z,56.80
2023-04-08T20:44:08.656Z,57.10
2023-04-08T20:46:35.926Z,57.40
2023-04-08T20:49:04.396Z,57.70
2023-04-08T20:51:33.759Z,57.80
2023-04-08T20:54:00.864Z,58.10
2023-04-08T20:56:28.163Z,58.40
2023-04-08T20:58:56.371Z,58.60
2023-04-08T21:01:24.545Z,58.60
2023-04-08T21:03:51.789Z,58.80
2023-04-08T21:06:19.716Z,59.40
2023-04-08T21:08:47.244Z,59.60
2023-04-08T21:11:14.750Z,59.60
2023-04-08T21:13:41.676Z,59.60
2023-04-08T21:16:08.874Z,59.20
2023-04-08T21:18:38.998Z,59.50
2023-04-08T21:21:06.230Z,59.90
2023-04-08T21:23:33.341Z,60.20
2023-04-08T21:26:03.197Z,60.30
2023-04-08T21:28:30.675Z,60.40
2023-04-08T21:31:07.987Z,60.70
2023-04-08T21:33:34.963Z,60.80
2023-04-08T21:36:01.885Z,60.70
2023-04-08T21:38:28.692Z,60.60
2023-04-08T21:40:55.765Z,60.50
2023-04-08T21:43:22.712Z,60.60
2023-04-08T21:45:49.807Z,60.90
2023-04-08T21:48:16.733Z,60.20
2023-04-08T21:50:45.714Z,60.20
2023-04-08T21:53:12.957Z,60.40
2023-04-08T21:55:39.743Z,61.00
2023-04-08T21:58:07.015Z,61.20
2023-04-08T22:00:34.055Z,61.40
2023-04-08T22:03:01.089Z,61.60
2023-04-08T22:05:28.205Z,61.90
2023-04-08T22:07:55.033Z,62.10
2023-04-08T22:10:22.036Z,61.90
2023-04-08T22:12:49.160Z,62.00
2023-04-08T22:15:16.173Z,62.00
2023-04-08T22:17:43.223Z,61.90
2023-04-08T22:20:10.997Z,61.90
2023-04-08T22:22:37.857Z,62.00
2023-04-08T22:25:05.441Z,62.10
2023-04-08T22:27:32.480Z,62.00
2023-04-08T22:29:59.293Z,62.30
2023-04-08T22:32:26.610Z,62.80
2023-04-08T22:34:53.492Z,63.00
2023-04-08T22:37:20.310Z,62.50
2023-04-08T22:39:47.200Z,62.60
2023-04-08T22:42:14.166Z,62.80
2023-04-08T22:44:41.040Z,62.70
2023-04-08T22:47:07.971Z,62.40
2023-04-08T22:49:34.960Z,62.80
2023-04-08T22:52:01.992Z,63.10
2023-04-08T22:54:28.816Z,63.20
2023-04-08T22:56:56.019Z,63.50
2023-04-08T22:59:22.888Z,63.80
2023-04-08T23:01:49.909Z,64.20
2023-04-08T23:04:16.908Z,64.60
2023-04-08T23:06:43.977Z,64.80
2023-04-08T23:09:10.994Z,64.90
2023-04-08T23:11:37.921Z,64.80
2023-04-08T23:14:04.810Z,64.80
2023-04-08T23:16:31.722Z,65.00
2023-04-08T23:18:58.542Z,65.20
2023-04-08T23:21:26.105Z,65.50
2023-04-08T23:23:53.022Z,65.70
2023-04-08T23:26:21.281Z,65.70
2023-04-08T23:28:48.208Z,66.00
2023-04-08T23:31:15.423Z,66.40
2023-04-08T23:33:42.340Z,66.80
2023-04-08T23:36:11.257Z,66.90
2023-04-08T23:38:38.588Z,67.10
2023-04-08T23:41:06.320Z,66.10
2023-04-08T23:43:34.254Z,65.60
2023-04-08T23:46:01.166Z,65.90
2023-04-08T23:48:28.114Z,66.50
2023-04-08T23:50:55.915Z,66.80
2023-04-08T23:53:23.252Z,67.00
2023-04-08T23:55:50.329Z,66.90
2023-04-08T23:58:17.232Z,66.60
